Time;durP1;ratioP1;P1;durP2;ratioP2;P2;SDS_P1;SDS_P2;PMS_P1;PMS_P2;Temp;Humidity;BMP_temperature;BMP_pressure;BME280_temperature;BME280_humidity;BME280_pressure;Samples;Min_cycle;Max_cycle;Signal;HPM_P1;HPM_P2
2021/09/10 00:01:57;;;;;;;3.00;2.20;;;;;;;21.35;65.22;100360.66;5087733;28;20222;-70
2021/09/10 00:04:24;;;;;;;3.60;2.30;;;;;;;21.35;65.15;100370.63;5084955;28;20272;-71
2021/09/10 00:06:52;;;;;;;2.28;2.08;;;;;;;21.35;65.06;100370.63;5087075;28;20199;-70
2021/09/10 00:09:18;;;;;;;2.80;2.10;;;;;;;21.33;65.25;100378.94;5082610;28;20587;-71
2021/09/10 00:11:45;;;;;;;2.58;2.08;;;;;;;21.33;65.27;100372.66;5089973;28;20224;-69
2021/09/10 00:14:12;;;;;;;2.63;2.05;;;;;;;21.32;65.38;100371.81;5087122;28;20231;-70
2021/09/10 00:16:39;;;;;;;3.00;2.53;;;;;;;21.32;65.49;100374.53;5085382;28;20204;-70
2021/09/10 00:19:06;;;;;;;5.07;2.50;;;;;;;21.34;65.53;100372.50;5084550;28;20679;-70
2021/09/10 00:21:33;;;;;;;2.73;2.30;;;;;;;21.34;65.78;100371.66;5089238;28;20565;-69
2021/09/10 00:24:01;;;;;;;3.43;2.60;;;;;;;21.34;65.86;100375.19;5087302;28;20700;-69
2021/09/10 00:26:27;;;;;;;3.00;2.70;;;;;;;21.35;65.82;100367.91;5088185;28;20205;-71
2021/09/10 00:28:54;;;;;;;2.90;2.23;;;;;;;21.35;65.97;100385.03;5087770;28;20212;-73
2021/09/10 00:31:20;;;;;;;3.20;2.80;;;;;;;21.35;66.00;100376.91;5087692;28;20227;-69
2021/09/10 00:33:47;;;;;;;3.88;2.97;;;;;;;21.35;66.07;100381.47;5085736;28;20231;-70
2021/09/10 00:36:13;;;;;;;3.92;2.92;;;;;;;21.35;66.14;100384.19;5086283;28;20210;-70
2021/09/10 00:38:40;;;;;;;3.72;3.03;;;;;;;21.33;66.27;100387.06;5082895;28;20297;-70
2021/09/10 00:41:08;;;;;;;3.40;3.10;;;;;;;21.34;66.46;100387.91;5089355;28;20210;-70
2021/09/10 00:43:34;;;;;;;3.60;3.07;;;;;;;21.32;66.60;100395.34;5086557;28;20607;-70
2021/09/10 00:46:01;;;;;;;3.33;2.97;;;;;;;21.29;66.68;100398.44;5081695;28;20207;-72
2021/09/10 00:48:28;;;;;;;3.57;3.03;;;;;;;21.25;66.73;100387.09;5085428;28;20203;-71
2021/09/10 00:50:55;;;;;;;4.33;3.57;;;;;;;21.22;66.83;100392.84;5083661;28;20722;-70
2021/09/10 00:53:22;;;;;;;3.90;3.57;;;;;;;21.18;67.06;100391.47;5090936;28;20218;-71
2021/09/10 00:55:48;;;;;;;6.40;3.90;;;;;;;21.12;67.21;100393.00;5089572;28;20202;-70
2021/09/10 00:58:16;;;;;;;4.23;3.37;;;;;;;21.07;67.36;100399.94;5090599;28;20207;-70
2021/09/10 01:00:43;;;;;;;3.30;3.00;;;;;;;20.99;67.47;100394.53;5087493;28;20193;-70
2021/09/10 01:03:11;;;;;;;4.07;3.47;;;;;;;20.91;67.57;100402.66;5084611;28;20253;-70
2021/09/10 01:05:41;;;;;;;4.53;3.23;;;;;;;20.82;68.05;100399.09;5084133;28;20577;-71
2021/09/10 01:08:10;;;;;;;4.70;3.50;;;;;;;20.75;68.08;100404.38;5083226;28;20214;-69
2021/09/10 01:10:38;;;;;;;6.23;3.47;;;;;;;20.67;68.47;100417.88;5085841;28;20207;-71
2021/09/10 01:13:05;;;;;;;4.60;3.33;;;;;;;20.63;68.47;100411.09;5078943;28;20207;-71
2021/09/10 01:15:33;;;;;;;4.20;3.80;;;;;;;20.57;68.78;100414.50;5091349;28;20546;-69
2021/09/10 01:18:00;;;;;;;3.70;3.13;;;;;;;20.50;69.12;100409.91;5086316;28;20578;-70
2021/09/10 01:20:26;;;;;;;4.80;3.60;;;;;;;20.45;69.22;100410.41;5083830;28;20677;-69
2021/09/10 01:22:53;;;;;;;5.50;3.43;;;;;;;20.42;69.38;100422.41;5090859;28;20210;-71
2021/09/10 01:25:22;;;;;;;3.83;3.27;;;;;;;20.40;69.55;100418.19;5091040;28;20599;-71
2021/09/10 01:27:53;;;;;;;4.00;3.30;;;;;;;20.38;69.69;100414.81;5092019;28;20577;-70
2021/09/10 01:30:22;;;;;;;3.50;3.10;;;;;;;20.35;69.61;100418.66;5087251;28;20299;-71
2021/09/10 01:32:50;;;;;;;3.70;3.40;;;;;;;20.33;69.72;100417.97;5088262;28;20222;-70
2021/09/10 01:35:17;;;;;;;4.47;3.83;;;;;;;20.33;69.88;100417.13;5088512;28;20678;-69
2021/09/10 01:37:44;;;;;;;4.33;3.33;;;;;;;20.31;70.29;100419.13;5092253;28;20209;-70
2021/09/10 01:40:12;;;;;;;4.23;3.73;;;;;;;20.31;70.29;100413.72;5088094;28;20210;-71
2021/09/10 01:42:40;;;;;;;4.27;3.87;;;;;;;20.28;70.28;100414.06;5091402;28;20689;-71
2021/09/10 01:45:09;;;;;;;3.90;3.60;;;;;;;20.20;70.15;100414.06;5088348;28;20217;-70
2021/09/10 01:47:36;;;;;;;4.47;3.77;;;;;;;20.13;70.32;100415.69;5090603;28;20201;-70
2021/09/10 01:50:04;;;;;;;5.13;3.53;;;;;;;20.07;70.39;100415.34;5090075;28;20213;-71
2021/09/10 01:52:30;;;;;;;4.20;3.47;;;;;;;19.98;69.93;100413.63;5091402;28;20231;-69
2021/09/10 01:54:57;;;;;;;3.60;3.30;;;;;;;19.90;69.99;100427.09;5083861;28;20248;-70
2021/09/10 01:57:23;;;;;;;3.77;3.30;;;;;;;19.82;70.01;100432.50;5089318;28;20837;-69
2021/09/10 01:59:51;;;;;;;3.63;3.33;;;;;;;19.75;70.30;100432.28;5092070;28;20210;-70
2021/09/10 02:02:18;;;;;;;3.77;3.40;;;;;;;19.71;70.69;100436.31;5089230;28;20202;-71
2021/09/10 02:04:45;;;;;;;5.20;3.93;;;;;;;19.68;70.77;100433.94;5086292;28;20216;-71
2021/09/10 02:07:11;;;;;;;5.20;4.20;;;;;;;19.66;71.32;100435.97;5090334;28;20208;-69
2021/09/10 02:09:38;;;;;;;5.00;3.70;;;;;;;19.65;71.63;100430.72;5090199;28;20210;-70
2021/09/10 02:12:05;;;;;;;4.60;3.93;;;;;;;19.60;71.99;100431.19;5085823;28;20223;-70
2021/09/10 02:14:32;;;;;;;4.87;4.43;;;;;;;19.59;72.32;100436.75;5086034;28;20231;-71
2021/09/10 02:17:00;;;;;;;5.07;4.57;;;;;;;19.58;73.02;100437.75;5089505;28;20216;-70
2021/09/10 02:19:27;;;;;;;5.10;4.37;;;;;;;19.56;73.42;100432.50;5089606;28;20199;-69
2021/09/10 02:21:53;;;;;;;4.73;4.13;;;;;;;19.55;73.94;100424.56;5090091;28;20203;-70
2021/09/10 02:24:20;;;;;;;5.37;4.87;;;;;;;19.57;74.05;100433.34;5086370;28;20665;-70
2021/09/10 02:26:47;;;;;;;5.83;4.90;;;;;;;19.59;74.55;100434.06;5088384;28;20218;-69
2021/09/10 02:29:15;;;;;;;5.63;5.13;;;;;;;19.61;75.10;100429.34;5088691;28;20221;-69
2021/09/10 02:31:41;;;;;;;6.13;5.07;;;;;;;19.63;75.30;100424.63;5086522;28;20233;-70
2021/09/10 02:34:10;;;;;;;6.43;5.57;;;;;;;19.66;75.58;100435.13;5084120;28;20237;-70
2021/09/10 02:36:37;;;;;;;6.20;5.07;;;;;;;19.68;76.02;100428.53;5091420;28;20198;-69
2021/09/10 02:39:05;;;;;;;5.93;4.80;;;;;;;19.71;76.21;100422.78;5090035;28;20202;-68
2021/09/10 02:41:32;;;;;;;8.80;5.77;;;;;;;19.73;76.19;100431.59;5091539;28;20290;-69
2021/09/10 02:43:58;;;;;;;6.00;5.40;;;;;;;19.74;76.69;100427.88;5087885;28;20220;-69
2021/09/10 02:46:25;;;;;;;6.03;5.40;;;;;;;19.76;76.93;100425.03;5088168;28;20203;-70
2021/09/10 02:48:51;;;;;;;6.90;6.00;;;;;;;19.79;77.16;100429.25;5089247;28;20585;-70
2021/09/10 02:51:19;;;;;;;5.80;5.30;;;;;;;19.80;77.47;100434.50;5084553;28;20742;-70
2021/09/10 02:53:46;;;;;;;7.87;6.87;;;;;;;19.81;77.73;100436.19;5089435;28;20731;-70
2021/09/10 02:56:12;;;;;;;7.43;6.60;;;;;;;19.81;78.06;100433.50;5090037;28;20209;-70
2021/09/10 02:58:39;;;;;;;7.13;6.50;;;;;;;19.82;78.36;100439.75;5082761;28;20208;-70
2021/09/10 03:01:05;;;;;;;7.43;6.70;;;;;;;19.82;78.77;100435.19;5089204;28;20234;-70
2021/09/10 03:03:32;;;;;;;7.30;6.60;;;;;;;19.83;79.17;100445.00;5087767;28;20733;-70
2021/09/10 03:05:58;;;;;;;8.17;6.40;;;;;;;19.84;79.66;100441.28;5088094;28;20638;-70
2021/09/10 03:08:26;;;;;;;8.23;6.47;;;;;;;19.88;80.00;100447.22;5089481;28;20685;-70
2021/09/10 03:10:53;;;;;;;8.00;7.20;;;;;;;19.89;79.94;100449.72;5089216;28;20212;-69
2021/09/10 03:13:20;;;;;;;6.93;6.33;;;;;;;19.90;80.23;100443.31;5091329;28;20234;-70
2021/09/10 03:15:46;;;;;;;7.80;7.00;;;;;;;19.89;80.27;100438.91;5090990;28;20201;-69
2021/09/10 03:18:13;;;;;;;6.67;6.07;;;;;;;19.87;80.37;100440.97;5098913;28;20563;-70
2021/09/10 03:20:40;;;;;;;8.03;6.67;;;;;;;19.84;80.46;100444.00;5089157;28;20204;-70
2021/09/10 03:23:06;;;;;;;7.40;6.00;;;;;;;19.81;80.63;100436.19;5089390;28;20197;-69
2021/09/10 03:25:34;;;;;;;11.50;6.87;;;;;;;19.76;80.81;100439.38;5088690;28;20260;-68
2021/09/10 03:28:01;;;;;;;10.67;5.47;;;;;;;19.72;80.95;100446.09;5080872;28;20207;-70
2021/09/10 03:30:27;;;;;;;8.20;6.70;;;;;;;19.71;81.25;100446.25;5085884;28;20198;-70
2021/09/10 03:32:54;;;;;;;7.37;5.87;;;;;;;19.69;81.51;100443.75;5084706;28;20251;-71
2021/09/10 03:35:20;;;;;;;7.37;6.23;;;;;;;19.68;81.86;100443.91;5087234;28;20237;-69
2021/09/10 03:37:47;;;;;;;7.33;6.47;;;;;;;19.69;82.11;100451.00;5088626;28;20578;-69
2021/09/10 03:40:14;;;;;;;7.50;6.70;;;;;;;19.71;82.61;100432.75;5090781;28;20291;-70
2021/09/10 03:42:42;;;;;;;7.60;6.90;;;;;;;19.73;83.07;100428.88;5089978;28;20290;-69
2021/09/10 03:45:10;;;;;;;7.60;6.90;;;;;;;19.78;83.65;100433.81;5088330;28;20234;-70
2021/09/10 03:47:36;;;;;;;7.67;6.90;;;;;;;19.81;83.57;100428.09;5089378;28;20200;-70
2021/09/10 03:50:03;;;;;;;7.40;6.70;;;;;;;19.83;84.01;100423.38;5083713;28;20206;-70
2021/09/10 03:52:31;;;;;;;7.87;6.87;;;;;;;19.85;84.15;100429.47;5081072;28;20223;-70
2021/09/10 03:54:57;;;;;;;9.37;6.60;;;;;;;19.86;84.32;100425.75;5086999;28;20233;-71
2021/09/10 03:57:24;;;;;;;7.73;7.03;;;;;;;19.87;84.15;100422.06;5086145;28;20202;-70
2021/09/10 03:59:52;;;;;;;7.20;6.50;;;;;;;19.87;84.19;100424.75;5088187;28;20201;-70
2021/09/10 04:02:18;;;;;;;7.67;6.93;;;;;;;19.86;84.34;100419.50;5088397;28;20207;-70
2021/09/10 04:04:45;;;;;;;7.40;6.73;;;;;;;19.87;84.45;100422.06;5089688;28;20596;-71
2021/09/10 04:07:11;;;;;;;7.00;6.30;;;;;;;19.85;84.07;100417.81;5087485;28;20214;-70
2021/09/10 04:09:38;;;;;;;8.47;6.40;;;;;;;19.85;84.15;100409.72;5087525;28;20206;-70
2021/09/10 04:12:05;;;;;;;7.30;6.47;;;;;;;19.84;84.15;100416.13;5088658;28;20223;-70
2021/09/10 04:14:31;;;;;;;8.00;7.20;;;;;;;19.84;84.07;100421.53;5087975;28;20243;-69
2021/09/10 04:16:59;;;;;;;8.03;7.30;;;;;;;19.82;84.01;100424.38;5087795;28;20197;-71
2021/09/10 04:19:26;;;;;;;8.10;7.30;;;;;;;19.83;84.37;100425.22;5092979;28;20206;-71
2021/09/10 04:21:52;;;;;;;7.87;7.17;;;;;;;19.84;84.28;100432.34;5086054;28;20282;-71
2021/09/10 04:24:19;;;;;;;8.30;7.13;;;;;;;19.84;84.32;100430.47;5080274;28;20227;-70
2021/09/10 04:26:45;;;;;;;8.30;7.50;;;;;;;19.84;84.26;100438.59;5087971;28;20214;-70
2021/09/10 04:29:12;;;;;;;9.30;7.50;;;;;;;19.82;84.01;100437.91;5088027;28;20221;-70
2021/09/10 04:31:39;;;;;;;8.07;7.37;;;;;;;19.80;84.06;100439.06;5081970;28;20850;-70
2021/09/10 04:34:06;;;;;;;8.63;7.83;;;;;;;19.75;84.06;100440.38;5088114;28;20233;-70
2021/09/10 04:36:33;;;;;;;8.63;7.57;;;;;;;19.71;84.43;100439.00;5082629;28;20705;-70
2021/09/10 04:38:59;;;;;;;8.77;6.77;;;;;;;19.70;84.30;100452.72;5081704;28;20207;-70
2021/09/10 04:41:26;;;;;;;7.13;6.43;;;;;;;19.68;84.22;100452.00;5082638;28;20206;-70
2021/09/10 04:43:53;;;;;;;7.60;6.80;;;;;;;19.66;84.21;100445.91;5078371;28;20231;-70
2021/09/10 04:46:19;;;;;;;7.93;7.10;;;;;;;19.67;84.31;100444.91;5081181;28;20203;-70
2021/09/10 04:48:46;;;;;;;8.07;7.27;;;;;;;19.67;84.52;100442.22;5080172;28;20203;-71
2021/09/10 04:51:13;;;;;;;8.13;7.37;;;;;;;19.67;84.66;100443.06;5080578;28;20223;-70
2021/09/10 04:53:40;;;;;;;8.60;7.77;;;;;;;19.66;84.61;100452.16;5079290;28;20597;-69
2021/09/10 04:56:07;;;;;;;9.63;7.73;;;;;;;19.67;84.70;100453.03;5077865;28;20207;-69
2021/09/10 04:58:34;;;;;;;7.87;7.13;;;;;;;19.67;84.63;100451.16;5083450;28;20205;-72
2021/09/10 05:01:01;;;;;;;8.43;7.63;;;;;;;19.66;84.70;100454.03;5077897;28;20218;-69
2021/09/10 05:03:27;;;;;;;9.27;8.07;;;;;;;19.65;84.79;100460.44;5080037;28;20231;-69
2021/09/10 05:05:54;;;;;;;7.73;7.03;;;;;;;19.64;84.63;100458.75;5078222;28;20209;-70
2021/09/10 05:08:21;;;;;;;12.07;7.30;;;;;;;19.62;84.74;100461.59;5078699;28;20198;-70
2021/09/10 05:10:48;;;;;;;8.13;7.33;;;;;;;19.62;84.83;100466.16;5080544;28;20216;-70
2021/09/10 05:13:14;;;;;;;8.13;7.10;;;;;;;19.61;85.17;100464.47;5079667;28;20234;-70
2021/09/10 05:15:41;;;;;;;8.30;7.50;;;;;;;19.61;84.69;100461.75;5079771;28;20210;-71
2021/09/10 05:18:08;;;;;;;7.37;6.73;;;;;;;19.61;84.86;100472.56;5073189;28;20206;-70
2021/09/10 05:20:34;;;;;;;7.40;6.70;;;;;;;19.60;84.81;100465.47;5079188;28;20206;-69
2021/09/10 05:23:01;;;;;;;7.63;6.67;;;;;;;19.60;84.87;100462.75;5079897;28;20211;-72
2021/09/10 05:25:29;;;;;;;7.77;7.07;;;;;;;19.62;84.80;100466.16;5077309;28;20681;-71
2021/09/10 05:27:55;;;;;;;8.87;7.70;;;;;;;19.63;84.70;100470.56;5081148;28;20214;-71
2021/09/10 05:30:22;;;;;;;8.60;7.70;;;;;;;19.63;84.97;100474.09;5086846;28;20840;-71
2021/09/10 05:32:48;;;;;;;8.40;7.60;;;;;;;19.64;84.90;100480.34;5081205;28;20226;-71
2021/09/10 05:35:15;;;;;;;7.40;6.80;;;;;;;19.65;84.64;100476.66;5089533;28;20602;-71
2021/09/10 05:37:42;;;;;;;8.30;7.50;;;;;;;19.66;84.77;100475.63;5086306;28;20211;-71
2021/09/10 05:40:10;;;;;;;7.67;7.00;;;;;;;19.66;84.55;100478.34;5090181;28;20208;-71
2021/09/10 05:42:38;;;;;;;7.33;6.57;;;;;;;19.66;84.77;100479.19;5085885;28;20591;-71
2021/09/10 05:45:06;;;;;;;7.93;7.13;;;;;;;19.66;84.88;100487.28;5084075;28;20235;-71
2021/09/10 05:47:33;;;;;;;8.10;7.40;;;;;;;19.66;84.87;100487.28;5082512;28;20218;-72
2021/09/10 05:49:59;;;;;;;8.13;7.30;;;;;;;19.67;84.90;100485.44;5089640;28;20201;-74
2021/09/10 05:52:26;;;;;;;8.90;7.70;;;;;;;19.68;84.96;100476.34;5090550;28;20248;-74
2021/09/10 05:54:52;;;;;;;8.90;7.47;;;;;;;19.68;85.17;100487.13;5089702;28;20221;-73
2021/09/10 05:57:19;;;;;;;9.43;8.47;;;;;;;19.69;85.12;100488.84;5091600;28;20221;-72
2021/09/10 05:59:47;;;;;;;8.50;7.70;;;;;;;19.70;85.27;100488.69;5086781;28;20206;-74
2021/09/10 06:02:13;;;;;;;8.70;7.90;;;;;;;19.73;85.49;100487.47;5090349;28;20211;-74
2021/09/10 06:04:40;;;;;;;8.10;7.40;;;;;;;19.76;85.36;100492.56;5090661;28;20233;-72
2021/09/10 06:07:06;;;;;;;7.90;7.10;;;;;;;19.78;85.16;100493.25;5087103;28;20228;-73
2021/09/10 06:09:33;;;;;;;8.57;7.73;;;;;;;19.80;85.25;100493.97;5089987;28;20214;-74
2021/09/10 06:11:59;;;;;;;8.60;7.83;;;;;;;19.84;85.12;100498.03;5093064;28;20206;-73
2021/09/10 06:14:26;;;;;;;8.37;7.60;;;;;;;19.87;85.13;100499.59;5090011;28;20713;-74
2021/09/10 06:16:54;;;;;;;10.00;8.53;;;;;;;19.91;85.29;100499.06;5089697;28;20212;-72
2021/09/10 06:19:20;;;;;;;8.50;7.80;;;;;;;19.96;85.41;100512.97;5090387;28;20202;-74
2021/09/10 06:21:47;;;;;;;8.67;7.87;;;;;;;20.01;85.37;100504.38;5089705;28;20206;-71
2021/09/10 06:24:13;;;;;;;10.17;8.53;;;;;;;20.05;85.49;100506.59;5087887;28;20223;-74
2021/09/10 06:26:40;;;;;;;8.97;7.80;;;;;;;20.13;85.77;100510.34;5088879;28;20202;-74
2021/09/10 06:29:06;;;;;;;8.67;7.60;;;;;;;20.17;85.19;100501.75;5089662;28;20205;-73
2021/09/10 06:31:33;;;;;;;9.87;7.20;;;;;;;20.21;85.18;100503.13;5090486;28;20215;-74
2021/09/10 06:34:01;;;;;;;8.60;7.70;;;;;;;20.23;84.82;100506.50;5090815;28;20227;-72
2021/09/10 06:36:27;;;;;;;8.47;7.60;;;;;;;20.25;84.62;100507.16;5088161;28;20200;-74
2021/09/10 06:38:54;;;;;;;8.43;6.80;;;;;;;20.28;84.50;100514.13;5088084;28;20198;-74
2021/09/10 06:41:20;;;;;;;8.13;7.33;;;;;;;20.30;84.43;100509.41;5089081;28;20213;-72
2021/09/10 06:43:47;;;;;;;7.90;7.20;;;;;;;20.33;84.04;100514.47;5090209;28;20222;-74
2021/09/10 06:46:13;;;;;;;8.60;7.80;;;;;;;20.35;84.33;100517.88;5088810;28;20250;-74
2021/09/10 06:48:40;;;;;;;8.57;7.60;;;;;;;20.38;84.39;100517.59;5085858;28;20202;-73
2021/09/10 06:51:08;;;;;;;9.17;7.90;;;;;;;20.40;84.34;100515.56;5089653;28;20243;-73
2021/09/10 06:53:35;;;;;;;9.30;7.70;;;;;;;20.42;84.30;100513.56;5086712;28;20240;-74
2021/09/10 06:56:02;;;;;;;8.40;7.50;;;;;;;20.43;84.35;100526.03;5090420;28;20725;-74
2021/09/10 06:58:29;;;;;;;9.90;7.50;;;;;;;20.44;84.66;100522.31;5088098;28;20211;-74
2021/09/10 07:00:55;;;;;;;8.27;7.43;;;;;;;20.47;84.43;100518.44;5089734;28;20671;-74
2021/09/10 07:03:22;;;;;;;8.40;7.60;;;;;;;20.48;84.61;100518.28;5090078;28;20227;-74
2021/09/10 07:05:48;;;;;;;8.80;7.93;;;;;;;20.50;84.45;100523.53;5084319;28;20230;-74
2021/09/10 07:08:16;;;;;;;8.87;7.97;;;;;;;20.53;84.80;100518.66;5089957;28;20206;-74
2021/09/10 07:10:43;;;;;;;7.87;7.07;;;;;;;20.56;84.59;100520.19;5081485;28;20585;-75
2021/09/10 07:13:09;;;;;;;9.00;7.30;;;;;;;20.58;84.57;100519.00;5088480;28;20219;-73
2021/09/10 07:15:36;;;;;;;9.63;7.87;;;;;;;20.61;84.44;100520.50;5084306;28;20202;-74
2021/09/10 07:18:02;;;;;;;11.60;7.97;;;;;;;20.65;84.49;100527.28;5089815;28;20199;-74
2021/09/10 07:20:29;;;;;;;8.67;7.77;;;;;;;20.66;84.39;100532.53;5086668;28;20203;-74
2021/09/10 07:22:55;;;;;;;8.10;7.40;;;;;;;20.69;84.02;100520.53;5083986;28;20543;-74
2021/09/10 07:25:23;;;;;;;10.87;7.73;;;;;;;20.71;83.91;100527.50;5089663;28;20213;-75
2021/09/10 07:27:50;;;;;;;9.57;8.07;;;;;;;20.74;84.25;100524.47;5091529;28;20522;-73
2021/09/10 07:30:16;;;;;;;8.65;7.85;;;;;;;20.78;84.06;100525.81;5088224;28;20207;-74
2021/09/10 07:32:43;;;;;;;8.20;7.40;;;;;;;20.81;84.00;100516.50;5089935;28;20215;-74
2021/09/10 07:35:10;;;;;;;8.37;7.57;;;;;;;20.86;83.86;100524.13;5087306;28;20234;-74
2021/09/10 07:37:40;;;;;;;8.70;7.80;;;;;;;20.89;83.92;100513.81;5087250;28;20561;-74
2021/09/10 07:40:08;;;;;;;8.67;7.83;;;;;;;20.92;83.54;100526.19;5085598;28;20206;-73
2021/09/10 07:42:35;;;;;;;8.77;7.63;;;;;;;20.94;83.43;100524.16;5087260;28;20657;-74
2021/09/10 07:45:02;;;;;;;9.02;7.38;;;;;;;20.99;83.19;100521.78;5085779;28;20227;-74
2021/09/10 07:47:29;;;;;;;9.73;7.57;;;;;;;21.03;82.90;100525.84;5088002;28;20582;-72
2021/09/10 07:49:55;;;;;;;8.95;7.63;;;;;;;21.07;82.65;100529.94;5087226;28;20214;-72
2021/09/10 07:52:21;;;;;;;8.40;7.43;;;;;;;21.14;82.54;100530.94;5086857;28;20203;-75
2021/09/10 07:54:48;;;;;;;7.75;7.03;;;;;;;21.20;82.16;100524.88;5084645;28;20232;-74
2021/09/10 07:57:14;;;;;;;8.90;7.68;;;;;;;21.29;82.02;100531.16;5090087;28;20199;-73
2021/09/10 07:59:42;;;;;;;9.25;7.45;;;;;;;21.37;81.38;100531.16;5088435;28;20651;-74
2021/09/10 08:02:09;;;;;;;8.32;6.70;;;;;;;21.41;81.18;100533.34;5089307;28;20213;-74
2021/09/10 08:04:35;;;;;;;7.63;6.82;;;;;;;21.46;80.59;100536.41;5088615;28;20723;-73
2021/09/10 08:07:02;;;;;;;7.38;6.68;;;;;;;21.53;80.51;100535.72;5082402;28;20199;-72
2021/09/10 08:09:28;;;;;;;8.57;6.75;;;;;;;21.61;80.37;100541.13;5092503;28;20673;-74
2021/09/10 08:11:55;;;;;;;7.85;6.93;;;;;;;21.71;80.02;100533.66;5095330;28;20208;-75
2021/09/10 08:14:21;;;;;;;9.48;7.07;;;;;;;21.80;79.71;100538.06;5087617;28;20258;-75
2021/09/10 08:16:49;;;;;;;8.57;7.78;;;;;;;21.89;79.00;100537.00;5093174;28;20200;-74
2021/09/10 08:19:16;;;;;;;9.07;7.32;;;;;;;21.96;78.70;100532.59;5090699;28;20196;-74
2021/09/10 08:21:42;;;;;;;8.82;7.25;;;;;;;22.05;78.50;100536.16;5092280;28;20200;-75
2021/09/10 08:24:10;;;;;;;8.15;7.30;;;;;;;22.16;78.22;100538.50;5095126;28;20303;-73
2021/09/10 08:26:37;;;;;;;7.88;7.18;;;;;;;22.27;77.42;100542.69;5086769;28;20200;-75
2021/09/10 08:29:03;;;;;;;8.82;7.18;;;;;;;22.34;77.18;100538.28;5095635;28;20577;-74
2021/09/10 08:31:30;;;;;;;8.10;7.28;;;;;;;22.40;76.46;100549.25;5092231;28;20204;-74
2021/09/10 08:33:58;;;;;;;7.85;6.82;;;;;;;22.48;75.69;100553.81;5098193;22;20228;-77
2021/09/10 08:36:25;;;;;;;7.20;6.47;;;;;;;22.58;75.81;100559.00;5070693;28;20208;-76
2021/09/10 08:38:51;;;;;;;8.77;7.13;;;;;;;22.70;75.42;100561.16;5072933;28;20223;-76
2021/09/10 08:41:22;;;;;;;10.18;7.30;;;;;;;22.82;74.47;100557.06;5070090;28;20204;-75
2021/09/10 08:43:49;;;;;;;8.02;7.15;;;;;;;22.95;74.25;100564.59;5070492;28;20245;-73
2021/09/10 08:46:16;;;;;;;8.02;6.72;;;;;;;23.10;73.93;100562.84;5069528;28;20221;-76
2021/09/10 08:48:44;;;;;;;7.50;6.57;;;;;;;23.24;73.00;100566.63;5072179;28;20208;-72
2021/09/10 08:51:12;;;;;;;7.55;6.85;;;;;;;23.34;72.75;100571.81;5070853;28;20207;-74
2021/09/10 08:53:38;;;;;;;9.82;7.47;;;;;;;23.42;72.32;100569.03;5068415;28;20224;-74
2021/09/10 08:56:05;;;;;;;7.85;7.10;;;;;;;23.46;71.21;100573.94;5071668;28;20564;-76
2021/09/10 08:58:32;;;;;;;7.93;7.22;;;;;;;23.50;71.29;100572.53;5069939;28;20207;-75
2021/09/10 09:00:59;;;;;;;8.05;6.63;;;;;;;23.54;71.26;100581.19;5071522;28;20207;-78
2021/09/10 09:03:28;;;;;;;8.25;7.40;;;;;;;23.61;70.76;100582.16;5071345;28;20196;-76
2021/09/10 09:05:54;;;;;;;8.35;7.45;;;;;;;23.67;70.91;100580.56;5068650;28;20214;-76
2021/09/10 09:08:23;;;;;;;9.05;8.23;;;;;;;23.72;70.21;100594.47;5066413;28;20216;-81
2021/09/10 09:10:56;;;;;;;10.82;8.73;;;;;;;23.75;70.01;100583.22;5072293;28;20209;-76
2021/09/10 09:13:24;;;;;;;9.65;8.65;;;;;;;23.78;69.47;100593.75;5070002;28;20225;-75
2021/09/10 09:16:13;;;;;;;9.38;8.48;;;;;;;23.82;69.66;100592.34;5064576;28;20212;-77
2021/09/10 09:18:42;;;;;;;9.30;8.23;;;;;;;23.87;69.53;100590.75;5064864;28;20254;-75
2021/09/10 09:21:09;;;;;;;8.57;7.70;;;;;;;23.90;69.35;100589.53;5070033;28;20205;-74
2021/09/10 09:23:37;;;;;;;8.85;7.47;;;;;;;23.92;69.58;100594.78;5067957;28;20193;-74
2021/09/10 09:26:14;;;;;;;8.73;7.93;;;;;;;23.94;69.24;100593.59;5071377;28;20203;-74
2021/09/10 09:28:41;;;;;;;7.93;7.22;;;;;;;23.96;69.26;100596.97;5070026;28;20900;-75
2021/09/10 09:31:08;;;;;;;8.32;7.43;;;;;;;23.96;68.71;100594.25;5066115;28;20677;-75
2021/09/10 09:33:38;;;;;;;9.07;7.60;;;;;;;23.97;68.94;100590.50;5070474;28;20230;-75
2021/09/10 09:36:06;;;;;;;9.20;7.57;;;;;;;24.01;68.57;100588.22;5068507;28;20205;-75
2021/09/10 09:38:35;;;;;;;10.57;7.95;;;;;;;24.03;68.69;100594.34;5068098;28;20205;-77
2021/09/10 09:41:06;;;;;;;10.68;9.57;;;;;;;24.05;68.33;100598.56;5068333;28;20207;-74
2021/09/10 09:43:34;;;;;;;10.85;9.82;;;;;;;24.04;67.69;100593.31;5067092;28;20197;-73
2021/09/10 09:46:02;;;;;;;10.57;9.52;;;;;;;24.02;67.64;100596.22;5069483;28;20200;-74
2021/09/10 09:48:29;;;;;;;11.32;9.77;;;;;;;24.04;67.46;100583.28;5066982;28;20199;-77
2021/09/10 09:50:58;;;;;;;11.88;10.32;;;;;;;24.11;67.72;100586.94;5070368;28;20201;-77
2021/09/10 09:53:25;;;;;;;12.15;10.60;;;;;;;24.19;67.62;100589.56;5071414;28;20204;-75
2021/09/10 09:55:52;;;;;;;11.10;9.88;;;;;;;24.28;67.49;100586.78;5070245;28;20212;-75
2021/09/10 09:58:20;;;;;;;9.65;8.75;;;;;;;24.32;67.65;100588.13;5070152;28;20208;-75
2021/09/10 10:00:48;;;;;;;10.32;9.32;;;;;;;24.35;66.92;100587.75;5070173;28;20633;-74
2021/09/10 10:03:15;;;;;;;10.27;9.30;;;;;;;24.34;67.31;100580.63;5067563;28;20211;-75
2021/09/10 10:05:48;;;;;;;10.93;9.93;;;;;;;24.36;67.26;100581.28;5063879;28;20225;-75
2021/09/10 10:08:20;;;;;;;10.60;9.60;;;;;;;24.37;67.21;100574.78;5062273;28;20262;-77
2021/09/10 10:10:50;;;;;;;10.73;9.68;;;;;;;24.39;67.18;100575.44;5070412;28;20246;-75
2021/09/10 10:13:25;;;;;;;11.77;10.57;;;;;;;24.39;67.18;100580.88;5070984;28;20293;-76
2021/09/10 10:15:52;;;;;;;12.45;10.82;;;;;;;24.39;66.75;100579.00;5069630;28;20204;-76
2021/09/10 10:18:39;;;;;;;11.27;10.25;;;;;;;24.38;66.46;100576.47;5071057;28;20211;-75
2021/09/10 10:21:06;;;;;;;12.55;10.77;;;;;;;24.37;66.67;100582.94;5065748;28;20508;-71
2021/09/10 10:23:56;;;;;;;11.07;9.98;;;;;;;24.36;66.49;100584.00;5070121;28;20576;-74
2021/09/10 10:26:44;;;;;;;13.18;10.73;;;;;;;24.36;66.31;100582.13;5070188;28;20634;-75
2021/09/10 10:29:18;;;;;;;11.15;10.13;;;;;;;24.34;66.52;100565.13;5062567;28;20200;-74
2021/09/10 10:32:05;;;;;;;11.55;10.52;;;;;;;24.36;66.51;100573.94;5068654;28;20205;-75
2021/09/10 10:34:34;;;;;;;11.85;10.73;;;;;;;24.37;66.37;100578.34;5069472;28;20270;-75
2021/09/10 10:37:00;;;;;;;12.23;11.02;;;;;;;24.39;66.53;100581.72;5069405;28;20199;-74
2021/09/10 10:39:29;;;;;;;12.02;10.73;;;;;;;24.42;66.83;100586.78;5066154;28;20201;-74
2021/09/10 10:41:58;;;;;;;11.23;10.13;;;;;;;24.46;66.61;100579.09;5068997;28;20581;-73
2021/09/10 10:45:00;;;;;;;10.77;9.77;;;;;;;24.47;66.27;100581.63;5067834;28;20225;-74
2021/09/10 10:47:34;;;;;;;10.85;9.35;;;;;;;24.47;66.27;100580.78;5059262;28;20196;-74
2021/09/10 10:50:02;;;;;;;12.48;10.68;;;;;;;24.48;66.67;100572.44;5063857;28;20200;-74
2021/09/10 10:52:37;;;;;;;10.43;9.43;;;;;;;24.48;66.50;100566.16;5062892;28;20197;-74
2021/09/10 10:55:19;;;;;;;12.07;10.85;;;;;;;24.47;65.98;100569.91;5062961;28;20715;-73
2021/09/10 10:57:47;;;;;;;13.80;12.40;;;;;;;24.42;66.26;100569.63;5057878;28;20860;-73
2021/09/10 11:00:46;;;;;;;13.15;11.88;;;;;;;24.40;66.36;100567.06;5065446;28;20196;-73
2021/09/10 11:03:38;;;;;;;12.30;11.10;;;;;;;24.42;66.25;100580.50;5051144;28;20236;-73
2021/09/10 11:06:27;;;;;;;12.93;11.40;;;;;;;24.39;66.69;100578.16;5062559;28;20201;-73
2021/09/10 11:08:55;;;;;;;11.85;10.73;;;;;;;24.37;66.87;100574.78;5059341;28;20295;-73
2021/09/10 11:11:21;;;;;;;12.23;10.93;;;;;;;24.33;66.84;100568.03;5060915;28;20207;-73
2021/09/10 11:13:48;;;;;;;12.52;11.23;;;;;;;24.32;66.76;100579.94;5062372;28;20221;-73
2021/09/10 11:16:29;;;;;;;12.70;11.43;;;;;;;24.28;67.00;100570.47;5064430;28;20211;-74
2021/09/10 11:18:56;;;;;;;13.55;12.15;;;;;;;24.23;67.14;100571.88;5067349;28;20200;-73
2021/09/10 11:21:29;;;;;;;14.25;12.30;;;;;;;24.22;67.54;100578.31;5068412;28;20208;-73
2021/09/10 11:23:56;;;;;;;14.10;12.70;;;;;;;24.20;67.58;100565.91;5069219;28;20260;-73
2021/09/10 11:26:33;;;;;;;16.05;14.07;;;;;;;24.21;68.13;100573.91;5062874;28;20207;-73